sensor_id;sensor_type;location;lat;lon;timestamp;P1;durP1;ratioP1;P2;durP2;ratioP2
59336;SDS011;45115;52.002;4.686;2023-05-07T00:02:24;35.38;;;20.67;;
59336;SDS011;45115;52.002;4.686;2023-05-07T00:04:51;36.10;;;21.33;;
59336;SDS011;45115;52.002;4.686;2023-05-07T00:07:18;38.85;;;22.33;;
59336;SDS011;45115;52.002;4.686;2023-05-07T00:09:46;35.72;;;20.25;;
59336;SDS011;45115;52.002;4.686;2023-05-07T00:12:12;33.88;;;20.10;;
59336;SDS011;45115;52.002;4.686;2023-05-07T00:14:39;40.20;;;21.00;;
59336;SDS011;45115;52.002;4.686;2023-05-07T00:17:06;38.90;;;21.52;;
59336;SDS011;45115;52.002;4.686;2023-05-07T00:19:32;33.72;;;19.50;;
59336;SDS011;45115;52.002;4.686;2023-05-07T00:21:59;32.75;;;20.13;;
59336;SDS011;45115;52.002;4.686;2023-05-07T00:24:26;39.78;;;21.90;;
59336;SDS011;45115;52.002;4.686;2023-05-07T00:26:54;35.70;;;19.95;;
59336;SDS011;45115;52.002;4.686;2023-05-07T00:29:20;36.10;;;20.80;;
59336;SDS011;45115;52.002;4.686;2023-05-07T00:31:48;37.17;;;20.60;;
59336;SDS011;45115;52.002;4.686;2023-05-07T00:34:15;32.10;;;19.67;;
59336;SDS011;45115;52.002;4.686;2023-05-07T00:36:42;37.20;;;20.98;;
59336;SDS011;45115;52.002;4.686;2023-05-07T00:39:08;36.05;;;21.00;;
59336;SDS011;45115;52.002;4.686;2023-05-07T00:41:35;35.92;;;20.55;;
59336;SDS011;45115;52.002;4.686;2023-05-07T00:44:04;37.75;;;21.92;;
59336;SDS011;45115;52.002;4.686;2023-05-07T00:46:30;38.47;;;20.70;;
59336;SDS011;45115;52.002;4.686;2023-05-07T00:48:58;36.35;;;21.25;;
59336;SDS011;45115;52.002;4.686;2023-05-07T00:51:25;37.35;;;22.02;;
59336;SDS011;45115;52.002;4.686;2023-05-07T00:53:53;38.40;;;21.50;;
59336;SDS011;45115;52.002;4.686;2023-05-07T00:56:20;36.88;;;23.13;;
59336;SDS011;45115;52.002;4.686;2023-05-07T00:58:46;39.50;;;23.13;;
59336;SDS011;45115;52.002;4.686;2023-05-07T01:01:15;38.58;;;23.05;;
59336;SDS011;45115;52.002;4.686;2023-05-07T01:03:42;41.30;;;23.67;;
59336;SDS011;45115;52.002;4.686;2023-05-07T01:06:08;42.05;;;24.95;;
59336;SDS011;45115;52.002;4.686;2023-05-07T01:08:37;39.15;;;24.02;;
59336;SDS011;45115;52.002;4.686;2023-05-07T01:11:06;42.63;;;24.63;;
59336;SDS011;45115;52.002;4.686;2023-05-07T01:13:33;41.63;;;25.70;;
59336;SDS011;45115;52.002;4.686;2023-05-07T01:16:01;44.22;;;26.23;;
59336;SDS011;45115;52.002;4.686;2023-05-07T01:18:30;47.72;;;26.42;;
59336;SDS011;45115;52.002;4.686;2023-05-07T01:20:57;44.25;;;26.73;;
59336;SDS011;45115;52.002;4.686;2023-05-07T01:23:27;41.42;;;25.02;;
59336;SDS011;45115;52.002;4.686;2023-05-07T01:25:54;44.38;;;25.95;;
59336;SDS011;45115;52.002;4.686;2023-05-07T01:28:24;42.85;;;25.75;;
59336;SDS011;45115;52.002;4.686;2023-05-07T01:30:53;44.50;;;25.92;;
59336;SDS011;45115;52.002;4.686;2023-05-07T01:33:22;45.30;;;25.95;;
59336;SDS011;45115;52.002;4.686;2023-05-07T01:35:52;43.40;;;25.98;;
59336;SDS011;45115;52.002;4.686;2023-05-07T01:38:20;45.78;;;28.15;;
59336;SDS011;45115;52.002;4.686;2023-05-07T01:40:50;43.42;;;26.58;;
59336;SDS011;45115;52.002;4.686;2023-05-07T01:43:17;45.95;;;28.42;;
59336;SDS011;45115;52.002;4.686;2023-05-07T01:45:45;46.58;;;26.45;;
59336;SDS011;45115;52.002;4.686;2023-05-07T01:48:14;44.40;;;26.98;;
59336;SDS011;45115;52.002;4.686;2023-05-07T01:50:41;44.97;;;27.65;;
59336;SDS011;45115;52.002;4.686;2023-05-07T01:53:08;46.33;;;28.13;;
59336;SDS011;45115;52.002;4.686;2023-05-07T01:55:35;46.28;;;28.15;;
59336;SDS011;45115;52.002;4.686;2023-05-07T01:58:04;44.33;;;26.70;;
59336;SDS011;45115;52.002;4.686;2023-05-07T02:00:31;46.22;;;27.42;;
59336;SDS011;45115;52.002;4.686;2023-05-07T02:02:58;42.55;;;26.23;;
59336;SDS011;45115;52.002;4.686;2023-05-07T02:05:36;42.38;;;26.08;;
59336;SDS011;45115;52.002;4.686;2023-05-07T02:08:10;44.50;;;25.17;;
59336;SDS011;45115;52.002;4.686;2023-05-07T02:10:37;42.50;;;26.63;;
59336;SDS011;45115;52.002;4.686;2023-05-07T02:13:06;40.30;;;25.65;;
59336;SDS011;45115;52.002;4.686;2023-05-07T02:15:33;39.03;;;24.02;;
59336;SDS011;45115;52.002;4.686;2023-05-07T02:18:02;38.47;;;24.75;;
59336;SDS011;45115;52.002;4.686;2023-05-07T02:20:32;35.47;;;24.63;;
59336;SDS011;45115;52.002;4.686;2023-05-07T02:22:59;39.40;;;25.00;;
59336;SDS011;45115;52.002;4.686;2023-05-07T02:25:28;40.40;;;25.35;;
59336;SDS011;45115;52.002;4.686;2023-05-07T02:27:55;38.90;;;24.88;;
59336;SDS011;45115;52.002;4.686;2023-05-07T02:30:32;36.78;;;24.00;;
59336;SDS011;45115;52.002;4.686;2023-05-07T02:32:59;37.42;;;24.30;;
59336;SDS011;45115;52.002;4.686;2023-05-07T02:35:25;38.85;;;24.88;;
59336;SDS011;45115;52.002;4.686;2023-05-07T02:37:52;37.42;;;23.58;;
59336;SDS011;45115;52.002;4.686;2023-05-07T02:40:20;35.13;;;23.27;;
59336;SDS011;45115;52.002;4.686;2023-05-07T02:42:46;35.78;;;23.42;;
59336;SDS011;45115;52.002;4.686;2023-05-07T02:45:13;36.63;;;23.50;;
59336;SDS011;45115;52.002;4.686;2023-05-07T02:47:42;34.08;;;22.98;;
59336;SDS011;45115;52.002;4.686;2023-05-07T02:50:10;34.17;;;22.95;;
59336;SDS011;45115;52.002;4.686;2023-05-07T02:52:37;37.50;;;22.08;;
59336;SDS011;45115;52.002;4.686;2023-05-07T02:55:04;33.75;;;21.48;;
59336;SDS011;45115;52.002;4.686;2023-05-07T02:57:32;32.65;;;21.58;;
59336;SDS011;45115;52.002;4.686;2023-05-07T02:59:58;33.22;;;21.75;;
59336;SDS011;45115;52.002;4.686;2023-05-07T03:02:28;30.75;;;21.30;;
59336;SDS011;45115;52.002;4.686;2023-05-07T03:04:56;32.20;;;21.73;;
59336;SDS011;45115;52.002;4.686;2023-05-07T03:07:23;30.90;;;20.60;;
59336;SDS011;45115;52.002;4.686;2023-05-07T03:09:49;31.50;;;20.95;;
59336;SDS011;45115;52.002;4.686;2023-05-07T03:12:16;30.33;;;21.00;;
59336;SDS011;45115;52.002;4.686;2023-05-07T03:14:44;31.45;;;21.00;;
59336;SDS011;45115;52.002;4.686;2023-05-07T03:17:11;30.70;;;20.42;;
59336;SDS011;45115;52.002;4.686;2023-05-07T03:19:38;28.45;;;19.23;;
59336;SDS011;45115;52.002;4.686;2023-05-07T03:22:06;30.50;;;19.98;;
59336;SDS011;45115;52.002;4.686;2023-05-07T03:24:32;29.60;;;19.52;;
59336;SDS011;45115;52.002;4.686;2023-05-07T03:26:59;28.65;;;18.30;;
59336;SDS011;45115;52.002;4.686;2023-05-07T03:29:28;29.35;;;19.63;;
59336;SDS011;45115;52.002;4.686;2023-05-07T03:31:54;29.02;;;19.70;;
59336;SDS011;45115;52.002;4.686;2023-05-07T03:34:21;28.55;;;19.10;;
59336;SDS011;45115;52.002;4.686;2023-05-07T03:36:48;27.65;;;19.15;;
59336;SDS011;45115;52.002;4.686;2023-05-07T03:39:17;27.42;;;17.95;;
59336;SDS011;45115;52.002;4.686;2023-05-07T03:41:43;28.10;;;18.08;;
59336;SDS011;45115;52.002;4.686;2023-05-07T03:44:10;26.95;;;16.98;;
59336;SDS011;45115;52.002;4.686;2023-05-07T03:46:37;28.05;;;18.23;;
59336;SDS011;45115;52.002;4.686;2023-05-07T03:49:04;25.77;;;18.75;;
59336;SDS011;45115;52.002;4.686;2023-05-07T03:51:31;26.17;;;17.83;;
59336;SDS011;45115;52.002;4.686;2023-05-07T03:53:58;28.98;;;18.65;;
59336;SDS011;45115;52.002;4.686;2023-05-07T03:56:28;28.33;;;18.60;;
59336;SDS011;45115;52.002;4.686;2023-05-07T03:58:57;28.83;;;18.00;;
59336;SDS011;45115;52.002;4.686;2023-05-07T04:01:24;25.77;;;16.83;;
59336;SDS011;45115;52.002;4.686;2023-05-07T04:03:51;28.02;;;18.20;;
59336;SDS011;45115;52.002;4.686;2023-05-07T04:06:18;27.40;;;17.88;;
59336;SDS011;45115;52.002;4.686;2023-05-07T04:08:46;26.00;;;17.50;;
59336;SDS011;45115;52.002;4.686;2023-05-07T04:11:13;27.58;;;18.02;;
59336;SDS011;45115;52.002;4.686;2023-05-07T04:13:41;29.70;;;18.90;;
59336;SDS011;45115;52.002;4.686;2023-05-07T04:16:08;28.25;;;18.27;;
59336;SDS011;45115;52.002;4.686;2023-05-07T04:18:36;27.02;;;17.90;;
59336;SDS011;45115;52.002;4.686;2023-05-07T04:21:04;27.13;;;17.33;;
59336;SDS011;45115;52.002;4.686;2023-05-07T04:23:32;28.27;;;17.95;;
59336;SDS011;45115;52.002;4.686;2023-05-07T04:26:02;25.30;;;16.52;;
59336;SDS011;45115;52.002;4.686;2023-05-07T04:28:34;27.65;;;17.17;;
59336;SDS011;45115;52.002;4.686;2023-05-07T04:31:02;27.63;;;17.35;;
59336;SDS011;45115;52.002;4.686;2023-05-07T04:33:31;25.40;;;16.85;;
59336;SDS011;45115;52.002;4.686;2023-05-07T04:35:58;25.45;;;17.17;;
59336;SDS011;45115;52.002;4.686;2023-05-07T04:38:28;25.67;;;16.95;;
59336;SDS011;45115;52.002;4.686;2023-05-07T04:40:55;25.60;;;17.05;;
59336;SDS011;45115;52.002;4.686;2023-05-07T04:43:26;25.08;;;16.25;;
59336;SDS011;45115;52.002;4.686;2023-05-07T04:45:52;26.88;;;16.88;;
59336;SDS011;45115;52.002;4.686;2023-05-07T04:48:23;23.73;;;16.13;;
59336;SDS011;45115;52.002;4.686;2023-05-07T04:50:51;26.25;;;16.88;;
59336;SDS011;45115;52.002;4.686;2023-05-07T04:53:19;24.05;;;16.45;;
59336;SDS011;45115;52.002;4.686;2023-05-07T04:55:47;25.85;;;16.55;;
59336;SDS011;45115;52.002;4.686;2023-05-07T04:58:14;24.83;;;17.08;;
59336;SDS011;45115;52.002;4.686;2023-05-07T05:00:43;27.88;;;17.13;;
59336;SDS011;45115;52.002;4.686;2023-05-07T05:03:09;23.88;;;15.90;;
59336;SDS011;45115;52.002;4.686;2023-05-07T05:05:39;24.17;;;15.70;;
59336;SDS011;45115;52.002;4.686;2023-05-07T05:08:06;25.05;;;16.58;;
59336;SDS011;45115;52.002;4.686;2023-05-07T05:10:36;24.50;;;15.70;;
59336;SDS011;45115;52.002;4.686;2023-05-07T05:13:02;25.80;;;17.02;;
59336;SDS011;45115;52.002;4.686;2023-05-07T05:15:30;26.52;;;16.92;;
59336;SDS011;45115;52.002;4.686;2023-05-07T05:17:57;24.35;;;16.35;;
59336;SDS011;45115;52.002;4.686;2023-05-07T05:20:24;27.25;;;17.27;;
59336;SDS011;45115;52.002;4.686;2023-05-07T05:22:52;28.15;;;16.67;;
59336;SDS011;45115;52.002;4.686;2023-05-07T05:25:19;26.50;;;17.00;;
59336;SDS011;45115;52.002;4.686;2023-05-07T05:27:46;25.33;;;16.27;;
59336;SDS011;45115;52.002;4.686;2023-05-07T05:30:13;26.05;;;16.30;;
59336;SDS011;45115;52.002;4.686;2023-05-07T05:32:43;23.67;;;15.63;;
59336;SDS011;45115;52.002;4.686;2023-05-07T05:35:09;25.15;;;16.77;;
59336;SDS011;45115;52.002;4.686;2023-05-07T05:37:37;24.40;;;16.83;;
59336;SDS011;45115;52.002;4.686;2023-05-07T05:40:07;27.85;;;17.33;;
59336;SDS011;45115;52.002;4.686;2023-05-07T05:42:34;24.60;;;16.65;;
59336;SDS011;45115;52.002;4.686;2023-05-07T05:45:02;26.30;;;17.15;;
59336;SDS011;45115;52.002;4.686;2023-05-07T05:47:30;26.45;;;17.95;;
59336;SDS011;45115;52.002;4.686;2023-05-07T05:49:58;27.85;;;18.30;;
59336;SDS011;45115;52.002;4.686;2023-05-07T05:52:25;28.27;;;19.20;;
59336;SDS011;45115;52.002;4.686;2023-05-07T05:54:54;32.63;;;19.98;;
59336;SDS011;45115;52.002;4.686;2023-05-07T05:57:22;30.05;;;19.05;;
59336;SDS011;45115;52.002;4.686;2023-05-07T05:59:49;31.20;;;19.83;;
59336;SDS011;45115;52.002;4.686;2023-05-07T06:02:16;30.67;;;20.00;;
59336;SDS011;45115;52.002;4.686;2023-05-07T06:04:42;31.88;;;20.30;;
59336;SDS011;45115;52.002;4.686;2023-05-07T06:07:11;31.60;;;21.45;;
59336;SDS011;45115;52.002;4.686;2023-05-07T06:09:37;32.60;;;21.48;;
59336;SDS011;45115;52.002;4.686;2023-05-07T06:12:04;32.47;;;21.70;;
59336;SDS011;45115;52.002;4.686;2023-05-07T06:14:33;35.00;;;23.02;;
59336;SDS011;45115;52.002;4.686;2023-05-07T06:17:00;36.55;;;22.88;;
59336;SDS011;45115;52.002;4.686;2023-05-07T06:19:27;37.78;;;23.75;;
59336;SDS011;45115;52.002;4.686;2023-05-07T06:21:59;36.25;;;22.80;;
59336;SDS011;45115;52.002;4.686;2023-05-07T06:24:28;38.08;;;23.98;;
59336;SDS011;45115;52.002;4.686;2023-05-07T06:26:55;39.15;;;24.08;;
59336;SDS011;45115;52.002;4.686;2023-05-07T06:29:25;34.15;;;22.73;;
59336;SDS011;45115;52.002;4.686;2023-05-07T06:31:53;35.17;;;23.63;;
59336;SDS011;45115;52.002;4.686;2023-05-07T06:34:21;36.92;;;25.35;;
59336;SDS011;45115;52.002;4.686;2023-05-07T06:36:47;37.10;;;24.27;;
59336;SDS011;45115;52.002;4.686;2023-05-07T06:39:32;35.63;;;24.17;;
59336;SDS011;45115;52.002;4.686;2023-05-07T06:41:59;39.45;;;25.92;;
59336;SDS011;45115;52.002;4.686;2023-05-07T06:44:30;39.97;;;25.63;;
59336;SDS011;45115;52.002;4.686;2023-05-07T06:47:18;40.63;;;26.15;;
59336;SDS011;45115;52.002;4.686;2023-05-07T06:49:49;38.78;;;25.42;;
59336;SDS011;45115;52.002;4.686;2023-05-07T06:52:18;40.15;;;25.88;;
59336;SDS011;45115;52.002;4.686;2023-05-07T06:54:47;38.92;;;26.27;;
59336;SDS011;45115;52.002;4.686;2023-05-07T06:57:16;42.08;;;27.25;;
59336;SDS011;45115;52.002;4.686;2023-05-07T06:59:42;39.78;;;26.52;;
59336;SDS011;45115;52.002;4.686;2023-05-07T07:02:09;40.40;;;25.80;;
59336;SDS011;45115;52.002;4.686;2023-05-07T07:04:37;40.75;;;25.65;;
59336;SDS011;45115;52.002;4.686;2023-05-07T07:07:08;41.45;;;26.45;;
59336;SDS011;45115;52.002;4.686;2023-05-07T07:09:35;39.88;;;24.88;;
59336;SDS011;45115;52.002;4.686;2023-05-07T07:12:03;41.88;;;26.73;;
59336;SDS011;45115;52.002;4.686;2023-05-07T07:14:30;39.80;;;26.52;;
59336;SDS011;45115;52.002;4.686;2023-05-07T07:16:57;37.92;;;26.45;;
59336;SDS011;45115;52.002;4.686;2023-05-07T07:19:25;38.40;;;26.23;;
59336;SDS011;45115;52.002;4.686;2023-05-07T07:21:55;37.20;;;25.42;;
59336;SDS011;45115;52.002;4.686;2023-05-07T07:24:21;43.53;;;27.42;;
59336;SDS011;45115;52.002;4.686;2023-05-07T07:26:53;39.30;;;26.73;;
59336;SDS011;45115;52.002;4.686;2023-05-07T07:29:20;42.10;;;27.00;;
59336;SDS011;45115;52.002;4.686;2023-05-07T07:31:48;43.33;;;27.55;;
59336;SDS011;45115;52.002;4.686;2023-05-07T07:34:16;37.90;;;25.67;;
59336;SDS011;45115;52.002;4.686;2023-05-07T07:36:42;36.67;;;25.38;;
59336;SDS011;45115;52.002;4.686;2023-05-07T07:39:11;36.33;;;24.98;;
59336;SDS011;45115;52.002;4.686;2023-05-07T07:41:38;31.55;;;22.95;;
59336;SDS011;45115;52.002;4.686;2023-05-07T07:44:05;30.38;;;20.85;;
59336;SDS011;45115;52.002;4.686;2023-05-07T07:46:35;29.73;;;20.30;;
59336;SDS011;45115;52.002;4.686;2023-05-07T07:49:02;28.55;;;20.38;;
59336;SDS011;45115;52.002;4.686;2023-05-07T07:51:29;28.23;;;20.42;;
59336;SDS011;45115;52.002;4.686;2023-05-07T07:53:57;28.75;;;18.45;;
59336;SDS011;45115;52.002;4.686;2023-05-07T07:56:26;25.02;;;17.00;;
59336;SDS011;45115;52.002;4.686;2023-05-07T07:58:52;23.63;;;17.27;;
59336;SDS011;45115;52.002;4.686;2023-05-07T08:01:19;24.48;;;18.08;;
59336;SDS011;45115;52.002;4.686;2023-05-07T08:03:46;24.98;;;18.33;;
59336;SDS011;45115;52.002;4.686;2023-05-07T08:06:13;25.50;;;17.98;;
59336;SDS011;45115;52.002;4.686;2023-05-07T08:08:40;26.95;;;17.45;;
59336;SDS011;45115;52.002;4.686;2023-05-07T08:11:06;22.15;;;15.75;;
59336;SDS011;45115;52.002;4.686;2023-05-07T08:13:36;23.52;;;16.48;;
59336;SDS011;45115;52.002;4.686;2023-05-07T08:16:04;24.40;;;16.27;;
59336;SDS011;45115;52.002;4.686;2023-05-07T08:18:32;20.27;;;14.23;;
59336;SDS011;45115;52.002;4.686;2023-05-07T08:21:01;21.50;;;15.73;;
59336;SDS011;45115;52.002;4.686;2023-05-07T08:23:28;19.42;;;14.43;;
59336;SDS011;45115;52.002;4.686;2023-05-07T08:25:55;21.17;;;15.48;;
59336;SDS011;45115;52.002;4.686;2023-05-07T08:28:22;20.80;;;15.48;;
59336;SDS011;45115;52.002;4.686;2023-05-07T08:30:51;20.80;;;14.32;;
59336;SDS011;45115;52.002;4.686;2023-05-07T08:33:18;22.00;;;15.55;;
59336;SDS011;45115;52.002;4.686;2023-05-07T08:35:45;20.20;;;15.30;;
59336;SDS011;45115;52.002;4.686;2023-05-07T08:38:13;20.90;;;15.65;;
59336;SDS011;45115;52.002;4.686;2023-05-07T08:40:40;23.05;;;15.70;;
59336;SDS011;45115;52.002;4.686;2023-05-07T08:43:12;21.70;;;16.05;;
59336;SDS011;45115;52.002;4.686;2023-05-07T08:45:41;22.30;;;15.52;;
59336;SDS011;45115;52.002;4.686;2023-05-07T08:48:15;22.05;;;16.15;;
59336;SDS011;45115;52.002;4.686;2023-05-07T08:50:48;21.23;;;15.20;;
59336;SDS011;45115;52.002;4.686;2023-05-07T08:53:15;21.85;;;14.65;;
59336;SDS011;45115;52.002;4.686;2023-05-07T08:55:43;20.00;;;14.27;;
59336;SDS011;45115;52.002;4.686;2023-05-07T08:58:11;17.65;;;12.63;;
59336;SDS011;45115;52.002;4.686;2023-05-07T09:00:38;16.33;;;10.93;;
59336;SDS011;45115;52.002;4.686;2023-05-07T09:03:06;17.33;;;11.40;;
59336;SDS011;45115;52.002;4.686;2023-05-07T09:05:36;15.48;;;10.50;;
59336;SDS011;45115;52.002;4.686;2023-05-07T09:08:05;17.98;;;11.38;;
59336;SDS011;45115;52.002;4.686;2023-05-07T09:10:33;17.35;;;11.25;;
59336;SDS011;45115;52.002;4.686;2023-05-07T09:13:02;17.60;;;10.70;;
59336;SDS011;45115;52.002;4.686;2023-05-07T09:15:29;18.15;;;11.43;;
59336;SDS011;45115;52.002;4.686;2023-05-07T09:17:58;16.15;;;11.40;;
59336;SDS011;45115;52.002;4.686;2023-05-07T09:20:26;17.77;;;11.98;;
59336;SDS011;45115;52.002;4.686;2023-05-07T09:22:56;20.05;;;11.75;;
59336;SDS011;45115;52.002;4.686;2023-05-07T09:25:27;17.15;;;11.77;;
59336;SDS011;45115;52.002;4.686;2023-05-07T09:27:55;15.68;;;9.18;;
59336;SDS011;45115;52.002;4.686;2023-05-07T09:30:21;15.07;;;9.73;;
59336;SDS011;45115;52.002;4.686;2023-05-07T09:32:49;15.27;;;10.80;;
59336;SDS011;45115;52.002;4.686;2023-05-07T09:35:19;13.48;;;6.95;;
59336;SDS011;45115;52.002;4.686;2023-05-07T09:37:55;11.27;;;5.88;;
59336;SDS011;45115;52.002;4.686;2023-05-07T09:40:24;11.40;;;6.33;;
59336;SDS011;45115;52.002;4.686;2023-05-07T09:42:52;10.90;;;5.20;;
59336;SDS011;45115;52.002;4.686;2023-05-07T09:45:21;11.95;;;6.78;;
59336;SDS011;45115;52.002;4.686;2023-05-07T09:47:48;12.63;;;7.70;;
59336;SDS011;45115;52.002;4.686;2023-05-07T09:50:19;14.10;;;8.40;;
59336;SDS011;45115;52.002;4.686;2023-05-07T09:52:47;13.80;;;8.85;;
59336;SDS011;45115;52.002;4.686;2023-05-07T09:55:16;14.15;;;9.10;;
59336;SDS011;45115;52.002;4.686;2023-05-07T09:57:44;14.48;;;9.38;;
59336;SDS011;45115;52.002;4.686;2023-05-07T10:00:12;13.70;;;9.43;;
59336;SDS011;45115;52.002;4.686;2023-05-07T10:02:46;13.60;;;8.27;;
59336;SDS011;45115;52.002;4.686;2023-05-07T10:05:17;13.77;;;8.55;;
59336;SDS011;45115;52.002;4.686;2023-05-07T10:07:45;13.80;;;8.13;;
59336;SDS011;45115;52.002;4.686;2023-05-07T10:10:13;13.35;;;9.40;;
59336;SDS011;45115;52.002;4.686;2023-05-07T10:12:44;12.90;;;7.63;;
59336;SDS011;45115;52.002;4.686;2023-05-07T10:15:17;14.52;;;8.98;;
59336;SDS011;45115;52.002;4.686;2023-05-07T10:17:49;12.38;;;7.25;;
59336;SDS011;45115;52.002;4.686;2023-05-07T10:20:17;12.05;;;7.53;;
59336;SDS011;45115;52.002;4.686;2023-05-07T10:22:46;13.82;;;8.32;;
59336;SDS011;45115;52.002;4.686;2023-05-07T10:25:21;13.02;;;7.00;;
59336;SDS011;45115;52.002;4.686;2023-05-07T10:27:54;10.63;;;6.50;;
59336;SDS011;45115;52.002;4.686;2023-05-07T10:32:55;11.82;;;7.53;;
59336;SDS011;45115;52.002;4.686;2023-05-07T10:35:32;13.45;;;8.10;;
59336;SDS011;45115;52.002;4.686;2023-05-07T10:38:05;10.65;;;7.18;;
59336;SDS011;45115;52.002;4.686;2023-05-07T10:40:34;14.32;;;9.13;;
59336;SDS011;45115;52.002;4.686;2023-05-07T10:43:04;13.43;;;9.30;;
59336;SDS011;45115;52.002;4.686;2023-05-07T10:45:37;12.88;;;8.15;;
59336;SDS011;45115;52.002;4.686;2023-05-07T10:48:05;14.75;;;8.73;;
59336;SDS011;45115;52.002;4.686;2023-05-07T10:50:36;12.90;;;8.35;;
59336;SDS011;45115;52.002;4.686;2023-05-07T10:53:20;14.65;;;9.60;;
59336;SDS011;45115;52.002;4.686;2023-05-07T10:56:23;13.60;;;8.48;;
59336;SDS011;45115;52.002;4.686;2023-05-07T11:02:14;15.00;;;8.77;;
59336;SDS011;45115;52.002;4.686;2023-05-07T11:04:59;12.57;;;7.55;;
59336;SDS011;45115;52.002;4.686;2023-05-07T11:07:53;13.00;;;8.32;;
59336;SDS011;45115;52.002;4.686;2023-05-07T11:10:21;12.32;;;7.65;;
59336;SDS011;45115;52.002;4.686;2023-05-07T11:12:56;11.98;;;8.10;;
59336;SDS011;45115;52.002;4.686;2023-05-07T11:15:40;12.90;;;7.55;;
59336;SDS011;45115;52.002;4.686;2023-05-07T11:18:17;11.10;;;7.28;;
59336;SDS011;45115;52.002;4.686;2023-05-07T11:20:50;12.77;;;7.13;;
59336;SDS011;45115;52.002;4.686;2023-05-07T11:23:57;12.55;;;7.85;;
59336;SDS011;45115;52.002;4.686;2023-05-07T11:26:42;10.52;;;7.07;;
59336;SDS011;45115;52.002;4.686;2023-05-07T11:29:10;11.90;;;7.85;;
59336;SDS011;45115;52.002;4.686;2023-05-07T11:31:41;10.88;;;6.95;;
59336;SDS011;45115;52.002;4.686;2023-05-07T11:34:09;12.48;;;7.32;;
59336;SDS011;45115;52.002;4.686;2023-05-07T11:36:37;12.00;;;8.27;;
59336;SDS011;45115;52.002;4.686;2023-05-07T11:39:23;12.10;;;7.25;;
59336;SDS011;45115;52.002;4.686;2023-05-07T11:41:50;12.73;;;9.25;;
59336;SDS011;45115;52.002;4.686;2023-05-07T11:44:17;12.57;;;8.68;;
59336;SDS011;45115;52.002;4.686;2023-05-07T11:46:45;11.73;;;8.25;;
59336;SDS011;45115;52.002;4.686;2023-05-07T11:49:12;14.07;;;8.43;;
59336;SDS011;45115;52.002;4.686;2023-05-07T11:51:38;12.75;;;8.23;;
59336;SDS011;45115;52.002;4.686;2023-05-07T11:54:06;12.80;;;8.13;;
59336;SDS011;45115;52.002;4.686;2023-05-07T11:56:33;12.45;;;8.07;;
59336;SDS011;45115;52.002;4.686;2023-05-07T11:59:01;13.73;;;8.90;;
59336;SDS011;45115;52.002;4.686;2023-05-07T12:01:27;14.85;;;9.68;;
59336;SDS011;45115;52.002;4.686;2023-05-07T12:03:56;13.63;;;9.48;;
59336;SDS011;45115;52.002;4.686;2023-05-07T12:06:22;13.05;;;9.23;;
59336;SDS011;45115;52.002;4.686;2023-05-07T12:08:49;12.23;;;8.27;;
59336;SDS011;45115;52.002;4.686;2023-05-07T12:11:16;14.00;;;8.65;;
59336;SDS011;45115;52.002;4.686;2023-05-07T12:13:50;13.05;;;9.02;;
59336;SDS011;45115;52.002;4.686;2023-05-07T12:16:17;13.02;;;8.90;;
59336;SDS011;45115;52.002;4.686;2023-05-07T12:18:44;13.55;;;9.68;;
59336;SDS011;45115;52.002;4.686;2023-05-07T12:21:13;13.18;;;8.75;;
59336;SDS011;45115;52.002;4.686;2023-05-07T12:23:40;17.13;;;10.70;;
59336;SDS011;45115;52.002;4.686;2023-05-07T12:26:06;14.38;;;9.18;;
59336;SDS011;45115;52.002;4.686;2023-05-07T12:28:38;13.80;;;9.23;;
59336;SDS011;45115;52.002;4.686;2023-05-07T12:31:05;17.88;;;10.38;;
59336;SDS011;45115;52.002;4.686;2023-05-07T12:33:33;16.38;;;9.98;;
59336;SDS011;45115;52.002;4.686;2023-05-07T12:36:02;16.23;;;9.65;;
59336;SDS011;45115;52.002;4.686;2023-05-07T12:41:03;13.77;;;8.75;;
59336;SDS011;45115;52.002;4.686;2023-05-07T12:43:30;12.77;;;9.30;;
59336;SDS011;45115;52.002;4.686;2023-05-07T12:46:00;13.20;;;8.98;;
59336;SDS011;45115;52.002;4.686;2023-05-07T12:48:29;13.73;;;8.70;;
59336;SDS011;45115;52.002;4.686;2023-05-07T12:50:56;14.27;;;9.32;;
59336;SDS011;45115;52.002;4.686;2023-05-07T12:53:24;15.60;;;11.30;;
59336;SDS011;45115;52.002;4.686;2023-05-07T12:55:55;15.80;;;9.50;;
59336;SDS011;45115;52.002;4.686;2023-05-07T12:58:24;15.48;;;10.10;;
59336;SDS011;45115;52.002;4.686;2023-05-07T13:00:53;16.33;;;10.50;;
59336;SDS011;45115;52.002;4.686;2023-05-07T13:03:24;15.00;;;10.50;;
59336;SDS011;45115;52.002;4.686;2023-05-07T13:05:52;15.65;;;10.45;;
59336;SDS011;45115;52.002;4.686;2023-05-07T13:08:23;17.42;;;11.45;;
59336;SDS011;45115;52.002;4.686;2023-05-07T13:10:56;17.33;;;11.48;;
59336;SDS011;45115;52.002;4.686;2023-05-07T13:13:25;18.80;;;12.57;;
59336;SDS011;45115;52.002;4.686;2023-05-07T13:15:51;20.15;;;12.15;;
59336;SDS011;45115;52.002;4.686;2023-05-07T13:18:18;19.70;;;12.60;;
59336;SDS011;45115;52.002;4.686;2023-05-07T13:20:45;20.75;;;13.57;;
59336;SDS011;45115;52.002;4.686;2023-05-07T13:23:11;19.48;;;13.77;;
59336;SDS011;45115;52.002;4.686;2023-05-07T13:25:38;20.90;;;14.38;;
59336;SDS011;45115;52.002;4.686;2023-05-07T13:28:06;20.63;;;13.93;;
59336;SDS011;45115;52.002;4.686;2023-05-07T13:30:33;19.33;;;13.27;;
59336;SDS011;45115;52.002;4.686;2023-05-07T13:33:00;21.38;;;15.02;;
59336;SDS011;45115;52.002;4.686;2023-05-07T13:35:27;20.52;;;14.57;;
59336;SDS011;45115;52.002;4.686;2023-05-07T13:37:53;18.85;;;13.48;;
59336;SDS011;45115;52.002;4.686;2023-05-07T13:40:20;20.35;;;13.30;;
59336;SDS011;45115;52.002;4.686;2023-05-07T13:42:47;21.38;;;14.57;;
59336;SDS011;45115;52.002;4.686;2023-05-07T13:45:16;28.30;;;16.88;;
59336;SDS011;45115;52.002;4.686;2023-05-07T13:47:42;29.33;;;17.83;;
59336;SDS011;45115;52.002;4.686;2023-05-07T13:50:09;26.20;;;17.75;;
59336;SDS011;45115;52.002;4.686;2023-05-07T13:52:39;26.23;;;17.10;;
59336;SDS011;45115;52.002;4.686;2023-05-07T13:55:08;24.90;;;16.63;;
59336;SDS011;45115;52.002;4.686;2023-05-07T13:57:35;28.77;;;18.50;;
59336;SDS011;45115;52.002;4.686;2023-05-07T14:00:02;35.88;;;19.95;;
59336;SDS011;45115;52.002;4.686;2023-05-07T14:02:41;30.25;;;18.98;;
59336;SDS011;45115;52.002;4.686;2023-05-07T14:05:08;32.03;;;19.77;;
59336;SDS011;45115;52.002;4.686;2023-05-07T14:07:35;28.90;;;19.17;;
59336;SDS011;45115;52.002;4.686;2023-05-07T14:10:02;26.50;;;17.17;;
59336;SDS011;45115;52.002;4.686;2023-05-07T14:12:29;28.50;;;18.45;;
59336;SDS011;45115;52.002;4.686;2023-05-07T14:14:56;29.33;;;18.70;;
59336;SDS011;45115;52.002;4.686;2023-05-07T14:17:22;27.23;;;17.85;;
59336;SDS011;45115;52.002;4.686;2023-05-07T14:19:52;33.03;;;20.05;;
59336;SDS011;45115;52.002;4.686;2023-05-07T14:22:20;28.20;;;19.88;;
59336;SDS011;45115;52.002;4.686;2023-05-07T14:24:47;28.67;;;19.05;;
59336;SDS011;45115;52.002;4.686;2023-05-07T14:27:13;27.27;;;18.42;;
59336;SDS011;45115;52.002;4.686;2023-05-07T14:29:40;31.52;;;18.38;;
59336;SDS011;45115;52.002;4.686;2023-05-07T14:32:07;29.77;;;19.25;;
59336;SDS011;45115;52.002;4.686;2023-05-07T14:34:34;28.95;;;18.20;;
59336;SDS011;45115;52.002;4.686;2023-05-07T14:37:02;30.90;;;19.90;;
59336;SDS011;45115;52.002;4.686;2023-05-07T14:39:29;28.58;;;18.27;;
59336;SDS011;45115;52.002;4.686;2023-05-07T14:41:56;29.58;;;17.00;;